Latest Weather Observations for Yanakie

IDV60801

Issued at 10:02 pm EST Wednesday 24 August 2016 (issued every 30 minutes, with the page automatically refreshed every 10 minutes)

About weather observations | Map of weather stations | Latest weather observations for VIC | Other Formats
Station Details ID: 085301 Name: YANAKIE Lat: -38.81 Lon: 146.19 Height: 13.3 m
Data from the previous 72 hours. | See also: Recent months at Yanakie
Date/Time
EST
Temp
°C
App
Temp
°C
Dew
Point
°C
Rel
Hum
%
Delta-T
°C
Wind Press
QNH
hPa
Press
MSL
hPa
Rain since
9am
mm
Dir  Spd
km/h
Gust
km/h
Spd
kts
Gust
kts
24/10:00pm 6.0 3.4 4.2 88 0.8 WNW 7 9 4 5 1013.1 1013.1 0.2
24/09:30pm 6.8 5.7 5.0 88 0.8 CALM 0 4 0 2 1013.2 1013.2 0.2
24/09:00pm 6.4 3.5 4.7 89 0.7 WNW 9 11 5 6 1013.3 1013.3 0.2
24/08:30pm 5.3 2.2 3.6 89 0.7 WNW 9 9 5 5 1013.3 1013.3 0.2
24/08:00pm 5.7 3.0 3.7 87 0.8 WNW 7 9 4 5 1013.4 1013.4 0.2
24/07:30pm 6.4 3.4 4.2 86 0.9 WNW 9 13 5 7 1013.4 1013.4 0.2
24/07:00pm 7.0 4.5 4.8 86 1.0 WNW 7 9 4 5 1013.4 1013.4 0.2
24/06:30pm 8.5 6.2 5.8 83 1.2 W 7 11 4 6 1013.3 1013.3 0.2
24/06:00pm 8.5 5.7 5.3 80 1.4 WSW 9 13 5 7 1013.1 1013.1 0.2
24/05:30pm 9.4 6.7 5.8 78 1.6 SW 9 11 5 6 1013.0 1013.0 0.2
24/05:00pm 9.8 7.2 6.3 79 1.6 SW 9 11 5 6 1013.1 1013.1 0.2
24/04:30pm 10.5 7.4 5.7 72 2.2 SW 11 17 6 9 1013.2 1013.2 0.2
24/04:00pm 11.2 7.8 5.7 69 2.5 SW 13 19 7 10 1013.2 1013.2 0.2
24/03:30pm 11.0 7.7 6.4 73 2.2 SW 13 19 7 10 1013.3 1013.3 0.2
24/03:00pm 11.5 8.9 6.2 70 2.5 SW 9 15 5 8 1013.4 1013.4 0.2
24/02:30pm 11.3 8.3 5.8 69 2.6 SW 11 17 6 9 1013.6 1013.6 0.2
24/02:00pm 11.1 8.9 6.0 71 2.4 SW 7 13 4 7 1013.7 1013.7 0.2
24/01:30pm 10.8 7.2 6.7 76 1.9 SW 15 20 8 11 1013.7 1013.7 0.2
24/01:00pm 11.2 7.8 6.1 71 2.4 SSW 13 20 7 11 1013.9 1013.9 0.2
24/12:30pm 11.4 8.7 5.7 68 2.6 SW 9 15 5 8 1014.3 1014.3 0.2
24/12:00pm 11.9 11.1 6.6 70 2.5 CALM 0 4 0 2 1014.6 1014.6 0.2
24/11:30am 10.7 9.2 6.6 76 1.9 W 4 6 2 3 1015.4 1015.4 0.2
24/11:00am 9.8 8.8 7.4 85 1.1 NW 2 6 1 3 1015.7 1015.7 0.2
24/10:30am 8.8 7.4 7.3 90 0.7 NW 4 6 2 3 1015.8 1015.8 0.2
24/10:00am 8.9 6.9 7.0 88 0.9 SSW 7 9 4 5 1016.0 1016.0 0.0
24/09:30am 9.0 8.4 7.3 89 0.8 CALM 0 0 0 0 1016.1 1016.1 0.0
24/09:00am 8.4 7.8 7.2 92 0.6 CALM 0 0 0 0 1016.3 1016.3 0.2
24/08:30am 7.5 6.0 6.6 94 0.4 N 4 4 2 2 1016.4 1016.4 0.2
24/08:00am 7.3 5.4 6.6 95 0.3 NNE 6 7 3 4 1016.5 1016.5 0.2
24/07:30am 6.9 5.3 6.2 95 0.3 E 4 4 2 2 1016.4 1016.4 0.2
24/07:00am 6.2 4.0 5.5 95 0.3 SSE 6 9 3 5 1016.5 1016.5 0.2
24/06:30am 5.6 3.3 4.9 95 0.3 NNE 6 6 3 3 1016.2 1016.2 0.2
24/06:00am 6.5 4.2 5.8 95 0.3 NNE 7 9 4 5 1016.1 1016.1 0.2
24/05:30am 5.6 3.7 4.9 95 0.3 NE 4 7 2 4 1016.1 1016.1 0.2
24/05:00am 5.7 3.8 5.0 95 0.3 NE 4 6 2 3 1016.2 1016.2 0.0
24/04:30am 5.8 4.3 5.1 95 0.3 SW 2 6 1 3 1016.2 1016.2 0.0
24/04:00am 5.7 3.4 5.0 95 0.3 WNW 6 7 3 4 1016.0 1016.0 0.0
24/03:30am 6.7 4.1 6.1 96 0.3 NW 9 11 5 6 1016.0 1016.0 0.0
24/03:00am 6.6 4.0 6.0 96 0.3 WNW 9 13 5 7 1016.1 1016.1 0.0
24/02:30am 3.8 1.2 3.1 95 0.3 WSW 6 13 3 7 1016.6 1016.6 0.0
24/02:00am 4.1 2.7 3.4 95 0.3 CALM 0 0 0 0 1016.8 1016.8 0.0
24/01:30am 4.3 2.1 3.6 95 0.3 N 4 6 2 3 1017.0 1017.0 0.0
24/01:00am 4.4 2.2 3.5 94 0.4 N 4 6 2 3 1017.0 1017.0 0.0
24/12:30am 4.8 3.5 3.9 94 0.4 CALM 0 0 0 0 1017.0 1017.0 0.0
24/12:00am 5.6 4.4 4.7 94 0.4 CALM 0 0 0 0 1017.0 1017.0 0.0
 
Date/Time
EST
Temp
°C
App
Temp
°C
Dew
Point
°C
Rel
Hum
%
Delta-T
°C
Wind Press
QNH
hPa
Press
MSL
hPa
Rain since
9am
mm
Dir  Spd
km/h
Gust
km/h
Spd
kts
Gust
kts
23/11:30pm 5.4 4.2 4.5 94 0.4 CALM 0 0 0 0 1017.1 1017.1 0.0
23/11:00pm 5.6 4.4 4.6 93 0.4 CALM 0 4 0 2 1017.0 1017.0 0.0
23/10:30pm 5.8 3.8 4.6 92 0.5 SW 4 6 2 3 1017.3 1017.3 0.0
23/10:00pm 6.2 3.9 4.8 91 0.6 WSW 6 7 3 4 1017.5 1017.5 0.0
23/09:30pm 6.5 4.2 5.0 90 0.7 WSW 6 7 3 4 1017.8 1017.8 0.0
23/09:00pm 7.2 4.9 5.7 90 0.7 SW 7 9 4 5 1017.8 1017.8 0.0
23/08:30pm 6.7 4.4 5.5 92 0.5 W 7 9 4 5 1017.9 1017.9 0.0
23/08:00pm 7.4 4.4 6.0 91 0.6 W 11 13 6 7 1017.9 1017.9 0.0
23/07:30pm 7.0 4.2 5.3 89 0.8 W 9 11 5 6 1017.9 1017.9 0.0
23/07:00pm 8.6 5.6 6.2 85 1.1 W 11 13 6 7 1017.8 1017.8 0.0
23/06:30pm 9.1 5.8 6.2 82 1.3 W 13 15 7 8 1017.7 1017.7 0.0
23/06:00pm 9.2 6.2 6.1 81 1.4 WSW 11 11 6 6 1017.5 1017.5 0.0
23/05:30pm 9.6 6.4 6.7 82 1.4 WSW 13 15 7 8 1017.3 1017.3 0.0
23/05:00pm 10.3 8.3 7.2 81 1.5 WSW 7 13 4 7 1017.3 1017.3 0.0
23/04:30pm 9.5 5.2 6.9 84 1.2 SW 19 24 10 13 1017.2 1017.2 0.0
23/04:00pm 10.9 7.2 6.1 72 2.2 SW 15 17 8 9 1016.9 1016.9 0.0
23/03:30pm 11.9 8.3 6.8 71 2.4 SW 15 19 8 10 1016.6 1016.6 0.0
23/03:00pm 11.3 6.9 6.4 72 2.3 WSW 19 22 10 12 1016.3 1016.3 0.0
23/02:30pm 11.7 7.9 6.0 68 2.7 WSW 15 22 8 12 1016.4 1016.4 0.0
23/02:00pm 11.5 7.4 8.5 82 1.5 SW 20 28 11 15 1016.4 1016.4 0.0
23/01:30pm 11.4 7.1 6.9 74 2.1 SSW 19 24 10 13 1016.3 1016.3 0.0
23/01:00pm 11.9 8.4 7.4 74 2.2 SW 15 24 8 13 1016.3 1016.3 0.0
23/12:30pm 11.3 6.5 5.8 69 2.6 SW 20 28 11 15 1016.5 1016.5 0.0
23/12:00pm 11.5 7.7 7.4 76 2.0 SSW 17 26 9 14 1016.8 1016.8 0.0
23/11:30am 11.8 7.8 6.7 71 2.4 SSW 17 28 9 15 1017.0 1017.0 0.0
23/11:00am 12.0 8.2 5.6 65 3.0 WSW 15 22 8 12 1017.3 1017.3 0.0
23/10:30am 12.0 8.2 5.9 66 2.9 W 15 22 8 12 1017.4 1017.4 0.0
23/10:00am 11.6 8.3 6.3 70 2.5 WNW 13 17 7 9 1017.5 1017.5 0.0
23/09:30am 10.9 8.1 6.8 76 1.9 WNW 11 15 6 8 1017.4 1017.4 0.0
23/09:00am 10.4 7.9 6.7 78 1.7 WNW 9 15 5 8 1017.3 1017.3 0.2
23/08:30am 7.9 7.0 5.9 87 0.9 CALM 0 0 0 0 1017.2 1017.2 0.2
23/08:00am 7.6 5.5 5.7 88 0.9 NW 6 9 3 5 1017.0 1017.0 0.2
23/07:30am 7.0 4.7 5.5 90 0.7 NW 7 9 4 5 1016.5 1016.5 0.2
23/07:00am 5.3 3.2 4.1 92 0.5 WNW 4 9 2 5 1016.3 1016.3 0.2
23/06:30am 4.7 2.5 3.4 91 0.5 NW 4 4 2 2 1016.2 1016.2 0.2
23/06:00am 4.4 2.5 2.9 90 0.6 NW 2 4 1 2 1015.9 1015.9 0.2
23/05:30am 4.7 3.2 3.2 90 0.6 CALM 0 0 0 0 1015.6 1015.6 0.2
23/05:00am 5.0 3.6 3.3 89 0.7 CALM 0 0 0 0 1015.6 1015.6 0.2
23/04:30am 5.0 2.4 3.2 88 0.7 NW 6 6 3 3 1015.4 1015.4 0.2
23/04:00am 5.0 2.8 3.2 88 0.7 WNW 4 6 2 3 1015.4 1015.4 0.2
23/03:30am 4.4 1.7 2.4 87 0.8 WNW 6 7 3 4 1015.2 1015.2 0.2
23/03:00am 5.0 3.4 2.7 85 0.9 CALM 0 0 0 0 1015.2 1015.2 0.2
23/02:30am 6.2 3.6 3.4 82 1.2 SSW 6 7 3 4 1015.4 1015.4 0.2
23/02:00am 6.4 3.6 3.4 81 1.3 SSW 7 9 4 5 1015.6 1015.6 0.2
23/01:30am 7.4 4.9 4.5 82 1.3 SSW 7 7 4 4 1015.8 1015.8 0.2
23/01:00am 7.6 6.0 6.2 91 0.6 SW 4 6 2 3 1015.8 1015.8 0.2
23/12:30am 8.0 7.3 6.8 92 0.6 CALM 0 0 0 0 1015.8 1015.8 0.2
23/12:00am 7.7 6.5 6.5 92 0.5 WNW 2 4 1 2 1015.7 1015.7 0.2
 
Date/Time
EST
Temp
°C
App
Temp
°C
Dew
Point
°C
Rel
Hum
%
Delta-T
°C
Wind Press
QNH
hPa
Press
MSL
hPa
Rain since
9am
mm
Dir  Spd
km/h
Gust
km/h
Spd
kts
Gust
kts
22/11:30pm 7.8 7.0 6.6 92 0.6 CALM 0 0 0 0 1015.7 1015.7 0.2
22/11:00pm 7.9 6.7 6.5 91 0.6 NE 2 2 1 1 1015.7 1015.7 0.2
22/10:30pm 8.4 6.9 7.0 91 0.7 NE 4 6 2 3 1015.8 1015.8 0.2
22/10:00pm 8.5 7.8 7.1 91 0.7 CALM 0 0 0 0 1015.7 1015.7 0.2
22/09:30pm 8.5 7.8 7.0 90 0.7 CALM 0 0 0 0 1015.5 1015.5 0.2
22/09:00pm 8.6 7.9 7.1 90 0.7 CALM 0 2 0 1 1015.5 1015.5 0.2
22/08:30pm 8.6 7.9 6.9 89 0.8 CALM 0 0 0 0 1015.2 1015.2 0.2
22/08:00pm 8.8 8.1 7.1 89 0.8 CALM 0 0 0 0 1015.1 1015.1 0.2
22/07:30pm 8.7 8.0 7.0 89 0.8 CALM 0 0 0 0 1014.7 1014.7 0.2
22/07:00pm 8.8 8.1 6.8 87 0.9 CALM 0 0 0 0 1014.5 1014.5 0.2
22/06:30pm 8.3 7.0 6.1 86 1.0 SSW 2 4 1 2 1014.1 1014.1 0.2
22/06:00pm 8.7 6.5 6.2 84 1.1 SSW 7 9 4 5 1013.7 1013.7 0.2
22/05:30pm 9.8 7.9 6.7 81 1.5 SSW 6 7 3 4 1013.4 1013.4 0.2
22/05:00pm 10.9 8.5 7.0 77 1.9 SSW 9 13 5 7 1013.2 1013.2 0.2
22/04:30pm 11.5 7.9 6.6 72 2.3 SSW 15 20 8 11 1013.0 1013.0 0.2
22/04:00pm 11.7 7.8 7.0 73 2.2 SSW 17 20 9 11 1012.9 1012.9 0.2
22/03:30pm 11.4 6.2 7.3 76 2.0 SSW 24 30 13 16 1012.7 1012.7 0.2
22/03:00pm 12.7 8.8 8.8 77 2.0 SSW 19 26 10 14 1012.6 1012.6 0.2
22/02:30pm 12.4 9.4 9.1 80 1.7 SSW 15 20 8 11 1012.6 1012.6 0.2
22/02:00pm 12.1 9.8 8.9 81 1.6 SSW 11 15 6 8 1012.6 1012.6 0.2
22/01:30pm 13.3 10.8 9.7 79 1.8 SW 13 17 7 9 1012.8 1012.8 0.2
22/01:00pm 13.6 10.7 8.2 70 2.7 W 13 17 7 9 1013.0 1013.0 0.2
22/12:30pm 12.4 9.1 7.9 74 2.2 W 15 19 8 10 1013.2 1013.2 0.2
22/12:00pm 13.2 10.2 7.9 70 2.6 W 13 19 7 10 1013.6 1013.6 0.2
22/11:30am 12.7 9.7 7.6 71 2.5 W 13 17 7 9 1013.9 1013.9 0.2
22/11:00am 12.6 9.6 7.7 72 2.4 WNW 13 19 7 10 1014.0 1014.0 0.2
22/10:30am 12.8 10.6 9.3 79 1.8 WNW 11 17 6 9 1014.2 1014.2 0.2
22/10:00am 12.3 9.6 9.0 80 1.7 WNW 13 17 7 9 1014.2 1014.2 0.2
22/09:30am 11.6 8.4 8.5 81 1.5 NW 15 17 8 9 1014.3 1014.3 0.2
22/09:00am 10.4 6.7 8.0 85 1.2 NW 17 20 9 11 1014.2 1014.2 5.2
22/08:30am 9.7 7.6 8.3 91 0.7 NNW 9 13 5 7 1014.0 1014.0 5.2
22/08:00am 7.8 6.6 6.6 92 0.6 WNW 2 6 1 3 1014.0 1014.0 5.2
22/07:30am 7.7 5.8 6.5 92 0.5 NW 6 7 3 4 1013.8 1013.8 5.2
22/07:00am 8.5 5.7 7.0 90 0.7 WNW 11 13 6 7 1013.6 1013.6 5.2
22/06:30am 8.9 6.2 7.5 91 0.7 WNW 11 15 6 8 1013.5 1013.5 5.2
22/06:00am 8.9 6.2 7.5 91 0.7 WNW 11 15 6 8 1013.4 1013.4 5.2
22/05:30am 8.9 6.3 7.7 92 0.6 WNW 11 15 6 8 1013.2 1013.2 5.2
22/05:00am 8.9 6.7 7.7 92 0.6 NW 9 13 5 7 1013.1 1013.1 5.2
22/04:30am 8.6 6.3 7.5 93 0.5 NW 9 13 5 7 1012.9 1012.9 5.2
22/04:00am 8.9 7.1 7.8 93 0.5 NW 7 9 4 5 1012.7 1012.7 5.2
22/03:30am 9.3 6.5 8.4 94 0.4 NNW 13 19 7 10 1012.8 1012.8 5.2
22/03:00am 9.3 7.2 8.4 94 0.4 NW 9 13 5 7 1013.1 1013.1 5.2
22/02:30am 9.1 7.0 8.3 95 0.4 NNW 9 13 5 7 1013.2 1013.2 5.2
22/02:00am 9.1 6.6 8.3 95 0.4 NW 11 15 6 8 1013.5 1013.5 5.2
22/01:30am 8.9 6.7 8.0 94 0.4 NW 9 11 5 6 1013.5 1013.5 5.2
22/01:00am 8.8 6.6 7.9 94 0.4 NNW 9 13 5 7 1013.6 1013.6 5.2
22/12:30am 8.8 6.6 7.9 94 0.4 NW 9 15 5 8 1013.5 1013.5 5.0
22/12:00am 8.8 6.2 7.9 94 0.4 NW 11 15 6 8 1013.7 1013.7 4.8
 
Date/Time
EST
Temp
°C
App
Temp
°C
Dew
Point
°C
Rel
Hum
%
Delta-T
°C
Wind Press
QNH
hPa
Press
MSL
hPa
Rain since
9am
mm
Dir  Spd
km/h
Gust
km/h
Spd
kts
Gust
kts
21/11:30pm 9.0 7.2 8.1 94 0.4 WNW 7 13 4 7 1013.7 1013.7 4.8
21/11:00pm 9.3 7.2 8.4 94 0.4 WNW 9 11 5 6 1013.9 1013.9 4.2
21/10:30pm 9.3 7.2 8.4 94 0.4 NW 9 13 5 7 1013.9 1013.9 4.0

Other Formats:

Comma delimited format used in spreadsheet applications
http://www.bom.gov.au/fwo/IDV60801/IDV60801.94911.axf

JavaScript Object Notation format (JSON) in row-major order
http://www.bom.gov.au/fwo/IDV60801/IDV60801.94911.json